CheckWX is a tool to help pilots better visualize weather data.  It is not intended as a substitute for an official pre-flight weather briefing.

22:36:46 UTC

KIWD METAR
Gogebic-Iron County Airport
Ironwood, Michigan, USA
Current

41 mins ago

KIWD 262156Z AUTO 21010KT 10SM CLR 07/M13 A3023 RMK AO2 SLP255 T00671128 PNO $
Observed
Mar-26 @ 21:56 UTC
Wind
  • 210° at 10 KTS
Visibility
10 SM
Flight Rules
VFR
Cloud Levels
  • Clear skies
Temperature
C / 45°F
Dewpoint
-13°C / 9°F
Humidity
23%
Altimeter
30.23" Hg
Pressure
1025.5 hPa
Previous

2 hours ago

KIWD 262056Z AUTO 22014KT 10SM CLR 07/M14 A3024 RMK AO2 SLP259 6//// T00721139 58028 PNO $
Observed
Mar-26 @ 20:56 UTC
Wind
  • 220° at 14 KTS
Visibility
10 SM
Flight Rules
VFR
Cloud Levels
  • Clear skies
Temperature
C / 45°F
Dewpoint
-14°C / 7°F
Humidity
21%
Altimeter
30.24" Hg
Pressure
1025.9 hPa
Previous

3 hours ago

KIWD 261956Z AUTO 20008KT 10SM CLR 07/M15 A3028 RMK AO2 SLP270 T00671150 PNO $
Observed
Mar-26 @ 19:56 UTC
Wind
  • 200° at 8 KTS
Visibility
10 SM
Flight Rules
VFR
Cloud Levels
  • Clear skies
Temperature
C / 45°F
Dewpoint
-15°C / 5°F
Humidity
19%
Altimeter
30.28" Hg
Pressure
1027 hPa